Bg Felixstowe — V2BR7 — position and weather

sailwx.info

Track history (hours):
 
Tides and Currents Weather Stations Pressure Air Temp Water Temp Dewpoint Dewpoint Depression Visibility Wind Speed Wind Dir Waves Ship Positions

Bg Felixstowe

Last reported at 2018-May-21 18:12 UTC. Time now 2018-May-24 14:04 UTC.
Position N 25°20' W 080°01'.

Length 139 m; draft 6.9 m.

Type: Ship. MMSI: 304906000.

Date/timePositionNaut miles runAvg speedWind from/ knotsBaromVisibWave heightAir tempDewpointWater temp
2018-May-21 18:12N 25°20' W 080°01'210.6
2018-May-21 17:58N 25°22' W 080°00'510.6
2018-May-21 17:30N 25°27' W 080°00'510.5
2018-May-21 17:00N 25°32' W 080°00'510.3
2018-May-21 16:30N 25°37' W 080°01'611.1
2018-May-21 16:00N 25°43' W 080°03'4 8.3
2018-May-21 15:30N 25°46' W 080°06'3 6.5
2018-May-21 15:00N 25°46' W 080°10'0 0.7
2018-May-21 14:30N 25°46' W 080°09'0 0.0
2018-May-21 13:58N 25°46' W 080°09'0 0.0
2018-May-21 13:28N 25°46' W 080°09'0 0.0
2018-May-21 13:00N 25°46' W 080°09'0 0.0
2018-May-21 12:30N 25°46' W 080°09'0 0.0
2018-May-21 12:00N 25°46' W 080°09'0 0.0
2018-May-21 11:24N 25°46' W 080°09'0 0.0
2018-May-21 11:00N 25°46' W 080°09'0 0.0
2018-May-21 10:29N 25°46' W 080°09'0 0.0
2018-May-21 09:59N 25°46' W 080°09'0 0.0
2018-May-21 09:29N 25°46' W 080°09'0 0.0
2018-May-21 08:59N 25°46' W 080°09'0 0.0
2018-May-21 08:29N 25°46' W 080°09'0 0.0
2018-May-21 07:58N 25°46' W 080°09'0 0.0
2018-May-21 07:28N 25°46' W 080°09'0 0.0
2018-May-21 06:58N 25°46' W 080°09'0 0.0
2018-May-21 06:28N 25°46' W 080°09'0 0.0
2018-May-21 06:00N 25°46' W 080°09'0 0.0
2018-May-21 05:30N 25°46' W 080°09'0 0.0
2018-May-21 05:00N 25°46' W 080°09'0 0.0
2018-May-21 04:30N 25°46' W 080°09'0 0.0
2018-May-21 04:00N 25°46' W 080°09'0 0.0
2018-May-21 03:29N 25°46' W 080°09'0 0.0
2018-May-21 02:59N 25°46' W 080°09'0 0.0
2018-May-21 02:29N 25°46' W 080°09'0 0.0
2018-May-21 01:59N 25°46' W 080°09'0 0.0
2018-May-21 01:29N 25°46' W 080°09'0 0.0
2018-May-21 00:58N 25°46' W 080°09'0 0.0
2018-May-21 00:28N 25°46' W 080°09'0 0.0
2018-May-20 23:58N 25°46' W 080°09'0 0.0
2018-May-20 23:28N 25°46' W 080°09'0 0.0
2018-May-20 23:00N 25°46' W 080°09'0 0.0
2018-May-20 22:30N 25°46' W 080°09'0 0.0
2018-May-20 22:00N 25°46' W 080°09'0 0.0
2018-May-20 21:29N 25°46' W 080°09'0 0.0
2018-May-20 20:59N 25°46' W 080°09'0 0.0
2018-May-20 20:28N 25°46' W 080°09'0 0.0
2018-May-20 19:55N 25°46' W 080°09'0 0.0
2018-May-20 19:28N 25°46' W 080°09'0 0.0
2018-May-20 19:00N 25°46' W 080°09'4 6.8
2018-May-20 18:30N 25°46' W 080°06'612.1
2018-May-20 18:01N 25°41' W 080°02'1019.1
2018-May-20 17:29N 25°31' W 079°60'  
2018-May-14 19:03N 25°07' W 080°07'012.4
2018-May-14 19:00N 25°08' W 080°07'612.0
2018-May-14 18:29N 25°13' W 080°04'611.7
2018-May-14 18:01N 25°19' W 080°02'611.3
2018-May-14 17:30N 25°24' W 080°00'611.3
2018-May-14 17:00N 25°30' W 080°00'611.3
2018-May-14 16:30N 25°36' W 080°00'611.5
2018-May-14 16:00N 25°41' W 080°02'612.0
2018-May-14 15:30N 25°46' W 080°05'4 8.0
2018-May-14 15:00N 25°46' W 080°10'1 1.1
2018-May-14 14:29N 25°46' W 080°10'0 0.0
2018-May-14 13:59N 25°46' W 080°10'0 0.0
2018-May-14 13:28N 25°46' W 080°10'0 0.0
2018-May-14 12:58N 25°46' W 080°10'0 0.0
2018-May-14 12:28N 25°46' W 080°10'0 0.0
2018-May-14 11:58N 25°46' W 080°10'0 0.0
2018-May-14 11:30N 25°46' W 080°10'0 0.0
2018-May-14 11:00N 25°46' W 080°10'0 0.0
2018-May-14 10:30N 25°46' W 080°10'0 0.0
2018-May-14 10:00N 25°46' W 080°10'0 0.0
2018-May-14 09:30N 25°46' W 080°10'0 0.0
2018-May-14 08:59N 25°46' W 080°10'0 0.0
2018-May-14 08:29N 25°46' W 080°10'0 0.0
2018-May-14 07:59N 25°46' W 080°10'0 0.0
2018-May-14 07:29N 25°46' W 080°10'0 0.0
2018-May-14 06:58N 25°46' W 080°10'0 0.0
2018-May-14 06:22N 25°46' W 080°10'0 0.0
2018-May-14 05:58N 25°46' W 080°10'0 0.0
2018-May-14 05:28N 25°46' W 080°10'0 0.0
2018-May-14 04:58N 25°46' W 080°10'0 0.0
2018-May-14 04:27N 25°46' W 080°10'0 0.0
2018-May-14 04:00N 25°46' W 080°10'0 0.0
2018-May-14 03:30N 25°46' W 080°10'0 0.0
2018-May-14 03:00N 25°46' W 080°10'0 0.0
2018-May-14 02:30N 25°46' W 080°10'0 0.0
2018-May-14 01:53N 25°46' W 080°10'0 0.0
2018-May-14 01:29N 25°46' W 080°10'0 0.0
2018-May-14 00:59N 25°46' W 080°10'0 0.0
2018-May-14 00:29N 25°46' W 080°10'0 0.0
2018-May-13 23:55N 25°46' W 080°10'0 0.0
2018-May-13 23:28N 25°46' W 080°10'0 0.0
2018-May-13 22:58N 25°46' W 080°10'0 0.8
2018-May-13 22:30N 25°46' W 080°10'5 9.7
2018-May-13 22:00N 25°45' W 080°04'2 4.4
2018-May-13 21:30N 25°44' W 080°03'4 7.6
2018-May-13 21:00N 25°40' W 080°02'612.3
2018-May-13 20:30N 25°34' W 079°60'612.8
2018-May-13 20:00N 25°28' W 079°60'713.3
2018-May-13 19:30N 25°21' W 080°01'  
Track history (hours):
 
Tides and Currents Weather Stations Pressure Air Temp Water Temp Dewpoint Dewpoint Depression Visibility Wind Speed Wind Dir Waves Ship Positions

Bg Felixstowe

Last reported at 2018-May-21 18:12 UTC. Time now 2018-May-24 14:04 UTC.
Position N 25°20' W 080°01'.

Length 139 m; draft 6.9 m.

Type: Ship. MMSI: 304906000.

Date/timePositionNaut miles runAvg speedWind from/ knotsBaromVisibWave heightAir tempDewpointWater temp
2018-May-21 18:12N 25°20' W 080°01'210.6
2018-May-21 17:58N 25°22' W 080°00'510.6
2018-May-21 17:30N 25°27' W 080°00'510.5
2018-May-21 17:00N 25°32' W 080°00'510.3
2018-May-21 16:30N 25°37' W 080°01'611.1
2018-May-21 16:00N 25°43' W 080°03'4 8.3
2018-May-21 15:30N 25°46' W 080°06'3 6.5
2018-May-21 15:00N 25°46' W 080°10'0 0.7
2018-May-21 14:30N 25°46' W 080°09'0 0.0
2018-May-21 13:58N 25°46' W 080°09'0 0.0
2018-May-21 13:28N 25°46' W 080°09'0 0.0
2018-May-21 13:00N 25°46' W 080°09'0 0.0
2018-May-21 12:30N 25°46' W 080°09'0 0.0
2018-May-21 12:00N 25°46' W 080°09'0 0.0
2018-May-21 11:24N 25°46' W 080°09'0 0.0
2018-May-21 11:00N 25°46' W 080°09'0 0.0
2018-May-21 10:29N 25°46' W 080°09'0 0.0
2018-May-21 09:59N 25°46' W 080°09'0 0.0
2018-May-21 09:29N 25°46' W 080°09'0 0.0
2018-May-21 08:59N 25°46' W 080°09'0 0.0
2018-May-21 08:29N 25°46' W 080°09'0 0.0
2018-May-21 07:58N 25°46' W 080°09'0 0.0
2018-May-21 07:28N 25°46' W 080°09'0 0.0
2018-May-21 06:58N 25°46' W 080°09'0 0.0
2018-May-21 06:28N 25°46' W 080°09'0 0.0
2018-May-21 06:00N 25°46' W 080°09'0 0.0
2018-May-21 05:30N 25°46' W 080°09'0 0.0
2018-May-21 05:00N 25°46' W 080°09'0 0.0
2018-May-21 04:30N 25°46' W 080°09'0 0.0
2018-May-21 04:00N 25°46' W 080°09'0 0.0
2018-May-21 03:29N 25°46' W 080°09'0 0.0
2018-May-21 02:59N 25°46' W 080°09'0 0.0
2018-May-21 02:29N 25°46' W 080°09'0 0.0
2018-May-21 01:59N 25°46' W 080°09'0 0.0
2018-May-21 01:29N 25°46' W 080°09'0 0.0
2018-May-21 00:58N 25°46' W 080°09'0 0.0
2018-May-21 00:28N 25°46' W 080°09'0 0.0
2018-May-20 23:58N 25°46' W 080°09'0 0.0
2018-May-20 23:28N 25°46' W 080°09'0 0.0
2018-May-20 23:00N 25°46' W 080°09'0 0.0
2018-May-20 22:30N 25°46' W 080°09'0 0.0
2018-May-20 22:00N 25°46' W 080°09'0 0.0
2018-May-20 21:29N 25°46' W 080°09'0 0.0
2018-May-20 20:59N 25°46' W 080°09'0 0.0
2018-May-20 20:28N 25°46' W 080°09'0 0.0
2018-May-20 19:55N 25°46' W 080°09'0 0.0
2018-May-20 19:28N 25°46' W 080°09'0 0.0
2018-May-20 19:00N 25°46' W 080°09'4 6.8
2018-May-20 18:30N 25°46' W 080°06'612.1
2018-May-20 18:01N 25°41' W 080°02'1019.1
2018-May-20 17:29N 25°31' W 079°60'  
2018-May-14 19:03N 25°07' W 080°07'012.4
2018-May-14 19:00N 25°08' W 080°07'612.0
2018-May-14 18:29N 25°13' W 080°04'611.7
2018-May-14 18:01N 25°19' W 080°02'611.3
2018-May-14 17:30N 25°24' W 080°00'611.3
2018-May-14 17:00N 25°30' W 080°00'611.3
2018-May-14 16:30N 25°36' W 080°00'611.5
2018-May-14 16:00N 25°41' W 080°02'612.0
2018-May-14 15:30N 25°46' W 080°05'4 8.0
2018-May-14 15:00N 25°46' W 080°10'1 1.1
2018-May-14 14:29N 25°46' W 080°10'0 0.0
2018-May-14 13:59N 25°46' W 080°10'0 0.0
2018-May-14 13:28N 25°46' W 080°10'0 0.0
2018-May-14 12:58N 25°46' W 080°10'0 0.0
2018-May-14 12:28N 25°46' W 080°10'0 0.0
2018-May-14 11:58N 25°46' W 080°10'0 0.0
2018-May-14 11:30N 25°46' W 080°10'0 0.0
2018-May-14 11:00N 25°46' W 080°10'0 0.0
2018-May-14 10:30N 25°46' W 080°10'0 0.0
2018-May-14 10:00N 25°46' W 080°10'0 0.0
2018-May-14 09:30N 25°46' W 080°10'0 0.0
2018-May-14 08:59N 25°46' W 080°10'0 0.0
2018-May-14 08:29N 25°46' W 080°10'0 0.0
2018-May-14 07:59N 25°46' W 080°10'0 0.0
2018-May-14 07:29N 25°46' W 080°10'0 0.0
2018-May-14 06:58N 25°46' W 080°10'0 0.0
2018-May-14 06:22N 25°46' W 080°10'0 0.0
2018-May-14 05:58N 25°46' W 080°10'0 0.0
2018-May-14 05:28N 25°46' W 080°10'0 0.0
2018-May-14 04:58N 25°46' W 080°10'0 0.0
2018-May-14 04:27N 25°46' W 080°10'0 0.0
2018-May-14 04:00N 25°46' W 080°10'0 0.0
2018-May-14 03:30N 25°46' W 080°10'0 0.0
2018-May-14 03:00N 25°46' W 080°10'0 0.0
2018-May-14 02:30N 25°46' W 080°10'0 0.0
2018-May-14 01:53N 25°46' W 080°10'0 0.0
2018-May-14 01:29N 25°46' W 080°10'0 0.0
2018-May-14 00:59N 25°46' W 080°10'0 0.0
2018-May-14 00:29N 25°46' W 080°10'0 0.0
2018-May-13 23:55N 25°46' W 080°10'0 0.0
2018-May-13 23:28N 25°46' W 080°10'0 0.0
2018-May-13 22:58N 25°46' W 080°10'0 0.8
2018-May-13 22:30N 25°46' W 080°10'5 9.7
2018-May-13 22:00N 25°45' W 080°04'2 4.4
2018-May-13 21:30N 25°44' W 080°03'4 7.6
2018-May-13 21:00N 25°40' W 080°02'612.3
2018-May-13 20:30N 25°34' W 079°60'612.8
2018-May-13 20:00N 25°28' W 079°60'713.3
2018-May-13 19:30N 25°21' W 080°01'  

Dump ship's entire track history